Time;durP1;ratioP1;P1;durP2;ratioP2;P2;SDS_P1;SDS_P2;PMS_P1;PMS_P2;Temp;Humidity;BMP_temperature;BMP_pressure;BME280_temperature;BME280_humidity;BME280_pressure;Samples;Min_cycle;Max_cycle;Signal;HPM_P1;HPM_P2
2022/10/17 00:00:46;;;;;;;10.90;7.50;;;16.10;99.90;;;;;;5097161;28;20453;-67
2022/10/17 00:03:13;;;;;;;9.60;7.43;;;16.20;99.90;;;;;;5097308;28;20453;-67
2022/10/17 00:05:40;;;;;;;9.93;7.90;;;16.20;99.90;;;;;;5097626;28;20544;-67
2022/10/17 00:08:07;;;;;;;8.57;7.20;;;16.20;99.90;;;;;;5096470;28;20826;-67
2022/10/17 00:10:36;;;;;;;10.00;7.30;;;16.20;99.90;;;;;;5096285;28;20476;-67
2022/10/17 00:13:03;;;;;;;10.80;7.10;;;16.20;99.90;;;;;;5096420;28;20540;-68
2022/10/17 00:15:30;;;;;;;8.57;6.50;;;16.20;99.90;;;;;;5096191;28;20477;-68
2022/10/17 00:17:57;;;;;;;7.33;6.17;;;16.20;99.90;;;;;;5096456;28;20457;-68
2022/10/17 00:20:25;;;;;;;9.17;5.60;;;16.30;99.90;;;;;;5096934;28;20453;-68
2022/10/17 00:22:52;;;;;;;7.03;6.33;;;16.30;99.90;;;;;;5096694;28;20784;-68
2022/10/17 00:25:19;;;;;;;6.00;5.40;;;16.30;99.90;;;;;;5096103;28;20489;-68
2022/10/17 00:27:47;;;;;;;6.20;5.60;;;16.30;99.90;;;;;;5097359;28;20457;-67
2022/10/17 00:30:15;;;;;;;8.97;6.07;;;16.30;99.90;;;;;;5096129;28;20453;-68
2022/10/17 00:32:42;;;;;;;6.30;5.60;;;16.30;99.90;;;;;;5096106;28;20464;-67
2022/10/17 00:35:10;;;;;;;7.07;5.67;;;16.30;99.90;;;;;;5095962;28;20473;-68
2022/10/17 00:37:37;;;;;;;5.90;5.30;;;16.30;99.90;;;;;;5095867;28;20781;-68
2022/10/17 00:40:05;;;;;;;6.77;5.30;;;16.30;99.90;;;;;;5095471;28;20458;-68
2022/10/17 00:42:32;;;;;;;8.60;5.80;;;16.20;99.90;;;;;;5095944;28;20493;-68
2022/10/17 00:45:15;;;;;;;10.63;5.70;;;16.30;99.90;;;;;;5095882;28;20453;-68
2022/10/17 00:47:45;;;;;;;8.43;5.90;;;16.20;99.90;;;;;;5095664;28;20438;-66
2022/10/17 00:50:13;;;;;;;6.50;5.60;;;16.30;99.90;;;;;;5095182;28;20458;-67
2022/10/17 00:52:41;;;;;;;8.50;5.90;;;16.20;99.90;;;;;;5095172;28;20921;-67
2022/10/17 00:55:13;;;;;;;5.70;5.20;;;16.20;99.90;;;;;;5095494;28;20568;-68
2022/10/17 00:57:41;;;;;;;5.80;5.20;;;16.20;99.90;;;;;;5095260;28;20444;-68
2022/10/17 01:00:14;;;;;;;6.90;6.07;;;16.20;99.90;;;;;;5095387;28;20655;-68
2022/10/17 01:02:41;;;;;;;10.03;7.13;;;16.20;99.90;;;;;;5095432;28;20442;-69
2022/10/17 01:05:09;;;;;;;8.67;6.17;;;16.20;99.90;;;;;;5095221;28;20939;-69
2022/10/17 01:07:37;;;;;;;7.73;6.00;;;16.30;99.90;;;;;;5095662;28;20453;-68
2022/10/17 01:10:06;;;;;;;6.40;5.43;;;16.30;99.90;;;;;;5095440;28;20826;-68
2022/10/17 01:12:42;;;;;;;6.00;4.93;;;16.30;99.90;;;;;;5095262;28;20453;-68
2022/10/17 01:15:19;;;;;;;5.90;5.03;;;16.30;99.90;;;;;;5094995;28;20952;-68
2022/10/17 01:17:59;;;;;;;5.93;4.87;;;16.30;99.90;;;;;;5095414;28;20517;-68
2022/10/17 01:20:58;;;;;;;5.30;4.80;;;16.20;99.90;;;;;;5095387;28;20545;-68
2022/10/17 01:23:35;;;;;;;5.37;4.77;;;16.20;99.90;;;;;;5095144;28;20522;-69
2022/10/17 01:26:13;;;;;;;4.50;4.10;;;16.10;99.90;;;;;;5095300;28;20437;-68
2022/10/17 01:29:11;;;;;;;5.00;4.60;;;16.10;99.90;;;;;;5095246;28;20434;-68
2022/10/17 01:31:45;;;;;;;4.30;3.90;;;16.00;99.90;;;;;;5078471;28;20467;-68
2022/10/17 01:34:18;;;;;;;6.10;4.50;;;16.00;99.90;;;;;;5095179;28;20459;-69
2022/10/17 01:36:51;;;;;;;4.13;3.73;;;15.90;99.90;;;;;;5095186;28;20434;-69
2022/10/17 01:39:26;;;;;;;5.67;4.87;;;15.90;99.90;;;;;;5094824;28;20448;-68
2022/10/17 01:41:59;;;;;;;4.73;4.33;;;15.90;99.90;;;;;;5094791;28;20445;-68
2022/10/17 01:44:32;;;;;;;4.60;4.20;;;15.90;99.90;;;;;;5094788;28;20529;-68
2022/10/17 01:47:05;;;;;;;4.90;3.63;;;15.90;99.90;;;;;;5094946;28;20914;-68
2022/10/17 01:49:34;;;;;;;4.40;4.00;;;15.90;99.90;;;;;;5094729;28;20484;-68
2022/10/17 01:52:07;;;;;;;5.07;4.23;;;15.80;99.90;;;;;;5094062;28;20467;-68
2022/10/17 01:54:40;;;;;;;5.70;3.80;;;15.80;99.90;;;;;;5094434;28;20453;-68
2022/10/17 01:57:11;;;;;;;4.00;3.60;;;15.80;99.90;;;;;;5094377;28;20508;-68
2022/10/17 01:59:41;;;;;;;4.07;3.67;;;15.80;99.90;;;;;;5094475;28;20544;-68
2022/10/17 02:02:11;;;;;;;4.00;3.57;;;15.80;99.90;;;;;;5095962;28;20528;-68
2022/10/17 02:04:40;;;;;;;4.03;3.70;;;15.80;99.90;;;;;;5098578;28;20540;-68
2022/10/17 02:07:07;;;;;;;4.43;3.90;;;15.70;99.90;;;;;;5099213;28;20484;-68
2022/10/17 02:09:35;;;;;;;7.33;3.63;;;15.70;99.90;;;;;;5098242;28;20768;-68
2022/10/17 02:12:21;;;;;;;4.33;3.93;;;15.70;99.90;;;;;;5098041;28;20484;-68
2022/10/17 02:15:02;;;;;;;4.43;4.03;;;15.70;99.90;;;;;;5098574;28;20570;-68
2022/10/17 02:17:44;;;;;;;5.37;4.43;;;15.70;99.90;;;;;;5098137;28;20533;-68
2022/10/17 02:20:20;;;;;;;6.33;4.50;;;15.70;99.90;;;;;;5098522;28;20845;-68
2022/10/17 02:22:54;;;;;;;4.80;4.40;;;15.70;99.90;;;;;;5098324;28;20441;-68
2022/10/17 02:25:29;;;;;;;5.00;4.60;;;15.60;99.90;;;;;;5097806;28;20482;-68
2022/10/17 02:28:02;;;;;;;5.80;5.13;;;15.60;99.90;;;;;;5098096;28;20440;-68
2022/10/17 02:30:35;;;;;;;4.77;4.37;;;15.60;99.90;;;;;;5098134;28;20438;-68
2022/10/17 02:33:07;;;;;;;5.07;4.47;;;15.60;99.90;;;;;;5097777;28;20528;-68
2022/10/17 02:35:39;;;;;;;4.70;4.30;;;15.60;99.90;;;;;;5097893;28;20469;-68
2022/10/17 02:38:09;;;;;;;5.63;4.40;;;15.60;99.90;;;;;;5098386;28;20446;-68
2022/10/17 02:40:37;;;;;;;5.03;4.60;;;15.60;99.90;;;;;;5097935;28;20463;-68
2022/10/17 02:43:07;;;;;;;5.00;4.50;;;15.70;99.90;;;;;;5097798;28;20488;-68
2022/10/17 02:45:36;;;;;;;5.43;4.40;;;15.70;99.90;;;;;;5097690;28;20563;-68
2022/10/17 02:48:08;;;;;;;4.87;4.47;;;15.70;99.90;;;;;;5097826;28;20548;-68
2022/10/17 02:50:46;;;;;;;5.10;4.40;;;15.80;99.90;;;;;;5098006;28;20441;-68
2022/10/17 02:53:17;;;;;;;4.80;4.40;;;15.70;99.90;;;;;;5097621;28;20441;-68
2022/10/17 02:55:48;;;;;;;5.00;4.50;;;15.70;99.90;;;;;;5097690;28;20461;-68
2022/10/17 02:58:20;;;;;;;4.80;4.30;;;15.70;99.90;;;;;;5097457;28;20491;-68
2022/10/17 03:00:48;;;;;;;5.97;4.50;;;15.70;99.90;;;;;;5097557;28;20528;-68
2022/10/17 03:03:25;;;;;;;4.93;4.53;;;15.70;99.90;;;;;;5097128;28;20453;-68
2022/10/17 03:05:52;;;;;;;5.13;4.63;;;15.70;99.90;;;;;;5097324;28;20532;-68
2022/10/17 03:08:20;;;;;;;4.50;4.20;;;15.70;99.90;;;;;;5097338;28;20456;-68
2022/10/17 03:10:47;;;;;;;5.20;4.70;;;15.70;99.90;;;;;;5096918;28;20544;-68
2022/10/17 03:13:14;;;;;;;4.83;4.43;;;15.60;99.90;;;;;;5096529;28;20453;-68
2022/10/17 03:15:40;;;;;;;5.10;4.60;;;15.70;99.90;;;;;;5096742;28;20492;-68
2022/10/17 03:18:07;;;;;;;5.00;4.60;;;15.60;99.90;;;;;;5096839;28;20453;-68
2022/10/17 03:20:36;;;;;;;5.37;4.70;;;15.60;99.90;;;;;;5096784;28;20454;-68
2022/10/17 03:23:03;;;;;;;5.23;4.73;;;15.60;99.90;;;;;;5097006;28;20491;-68
2022/10/17 03:25:30;;;;;;;5.10;4.60;;;15.60;99.90;;;;;;5097386;28;20478;-68
2022/10/17 03:27:59;;;;;;;5.57;5.00;;;15.60;99.90;;;;;;5096770;28;20453;-68
2022/10/17 03:30:25;;;;;;;5.87;5.27;;;15.60;99.90;;;;;;5097361;28;20461;-68
2022/10/17 03:32:52;;;;;;;5.77;5.17;;;15.60;99.90;;;;;;5096682;28;20454;-68
2022/10/17 03:35:19;;;;;;;5.43;4.93;;;15.60;99.90;;;;;;5097063;28;20477;-68
2022/10/17 03:37:47;;;;;;;5.47;5.00;;;15.60;99.90;;;;;;5096757;28;20457;-68
2022/10/17 03:40:14;;;;;;;6.37;5.77;;;15.60;99.90;;;;;;5096637;28;20453;-68
2022/10/17 03:42:41;;;;;;;7.97;4.97;;;15.60;99.90;;;;;;5096790;28;20552;-68
2022/10/17 03:45:09;;;;;;;6.47;5.87;;;15.60;99.90;;;;;;5096385;28;20936;-68
2022/10/17 03:47:35;;;;;;;8.20;6.23;;;15.60;99.90;;;;;;5096482;28;20460;-68
2022/10/17 03:50:02;;;;;;;6.10;5.03;;;15.70;99.90;;;;;;5096592;28;20484;-68
2022/10/17 03:52:29;;;;;;;5.50;5.00;;;15.60;99.90;;;;;;5096582;28;20478;-68
2022/10/17 03:54:57;;;;;;;6.73;6.13;;;15.60;99.90;;;;;;5096679;28;20463;-68
2022/10/17 03:57:24;;;;;;;4.90;4.33;;;15.60;99.90;;;;;;5096466;28;20488;-68
2022/10/17 03:59:51;;;;;;;6.40;5.80;;;15.60;99.90;;;;;;5096594;28;20467;-68
2022/10/17 04:02:18;;;;;;;6.83;6.23;;;15.60;99.90;;;;;;5096486;28;20467;-68
2022/10/17 04:04:45;;;;;;;5.77;5.27;;;15.60;99.90;;;;;;5097122;28;20468;-68
2022/10/17 04:07:11;;;;;;;8.17;5.83;;;15.60;99.90;;;;;;5096131;28;20446;-68
2022/10/17 04:09:38;;;;;;;5.30;4.90;;;15.50;99.90;;;;;;5095866;28;20453;-68
2022/10/17 04:12:07;;;;;;;5.77;5.23;;;15.50;99.90;;;;;;5096268;28;20463;-68
2022/10/17 04:14:34;;;;;;;5.53;5.03;;;15.50;99.90;;;;;;5096210;28;20806;-68
2022/10/17 04:17:00;;;;;;;6.60;6.00;;;15.50;99.90;;;;;;5096146;28;20473;-68
2022/10/17 04:19:27;;;;;;;5.80;5.30;;;15.50;99.90;;;;;;5096202;28;20540;-68
2022/10/17 04:21:54;;;;;;;6.10;5.50;;;15.50;99.90;;;;;;5096103;28;20789;-68
2022/10/17 04:24:21;;;;;;;6.20;5.70;;;15.50;99.90;;;;;;5095911;28;20648;-69
2022/10/17 04:26:50;;;;;;;6.00;5.50;;;15.50;99.90;;;;;;5094768;28;20460;-68
2022/10/17 04:29:19;;;;;;;6.20;5.50;;;15.40;99.90;;;;;;5095676;28;20457;-68
2022/10/17 04:31:46;;;;;;;5.53;5.03;;;15.40;99.90;;;;;;5095805;28;20461;-68
2022/10/17 04:34:13;;;;;;;10.53;6.50;;;15.30;99.90;;;;;;5095312;28;20449;-68
2022/10/17 04:36:40;;;;;;;6.10;5.50;;;15.30;99.90;;;;;;5095269;28;21000;-68
2022/10/17 04:39:07;;;;;;;6.23;5.63;;;15.30;99.90;;;;;;5095773;28;20450;-68
2022/10/17 04:41:34;;;;;;;6.23;5.63;;;15.40;99.90;;;;;;5095772;28;20469;-68
2022/10/17 04:44:01;;;;;;;6.57;5.67;;;15.40;99.90;;;;;;5096085;28;20864;-67
2022/10/17 04:46:29;;;;;;;6.50;5.80;;;15.40;99.90;;;;;;5095683;28;20464;-68
2022/10/17 04:48:56;;;;;;;6.70;6.10;;;15.40;99.90;;;;;;5095899;28;20454;-68
2022/10/17 04:51:23;;;;;;;6.00;5.50;;;15.40;99.90;;;;;;5095706;28;20485;-68
2022/10/17 04:53:50;;;;;;;16.47;13.90;;;15.40;99.90;;;;;;5095712;28;20464;-68
2022/10/17 04:56:19;;;;;;;10.03;9.00;;;15.40;99.90;;;;;;5095835;28;20546;-68
2022/10/17 04:58:46;;;;;;;7.27;6.00;;;15.40;99.90;;;;;;5095816;28;20453;-68
2022/10/17 05:01:15;;;;;;;7.43;6.27;;;15.40;99.90;;;;;;5095416;28;20540;-68
2022/10/17 05:03:44;;;;;;;6.63;5.60;;;15.40;99.90;;;;;;5095847;28;20461;-68
2022/10/17 05:06:13;;;;;;;6.80;6.10;;;15.40;99.90;;;;;;5095618;28;20464;-68
2022/10/17 05:08:40;;;;;;;6.40;5.80;;;15.30;99.90;;;;;;5096071;28;20453;-68
2022/10/17 05:11:16;;;;;;;12.53;6.20;;;15.40;99.90;;;;;;5095508;28;20484;-68
2022/10/17 05:13:43;;;;;;;6.67;5.97;;;15.30;99.90;;;;;;5095133;28;20877;-69
2022/10/17 05:16:10;;;;;;;7.53;6.20;;;15.30;99.90;;;;;;5095242;28;20512;-67
2022/10/17 05:18:37;;;;;;;6.67;5.70;;;15.30;99.90;;;;;;5095275;28;20449;-68
2022/10/17 05:21:06;;;;;;;7.20;6.50;;;15.20;99.90;;;;;;5095117;28;20463;-68
2022/10/17 05:23:32;;;;;;;6.27;5.73;;;15.20;99.90;;;;;;5094816;28;20481;-68
2022/10/17 05:25:59;;;;;;;7.13;6.43;;;15.20;99.90;;;;;;5095560;28;20444;-68
2022/10/17 05:28:26;;;;;;;8.33;6.47;;;15.10;99.90;;;;;;5095385;28;20463;-66
2022/10/17 05:30:53;;;;;;;8.00;6.87;;;15.10;99.90;;;;;;5094894;28;20476;-66
2022/10/17 05:33:20;;;;;;;7.27;6.57;;;15.10;99.90;;;;;;5094950;28;20452;-66
2022/10/17 05:35:46;;;;;;;7.53;6.83;;;15.10;99.90;;;;;;5094638;28;20922;-67
2022/10/17 05:38:15;;;;;;;7.37;6.23;;;15.10;99.90;;;;;;5094617;28;20789;-67
2022/10/17 05:40:41;;;;;;;11.43;7.13;;;15.10;99.90;;;;;;5094634;28;20459;-66
2022/10/17 05:43:08;;;;;;;7.00;6.30;;;15.00;99.90;;;;;;5094487;28;20453;-67
2022/10/17 05:45:36;;;;;;;6.90;6.30;;;15.00;99.90;;;;;;5094838;28;20556;-67
2022/10/17 05:48:03;;;;;;;11.13;6.20;;;15.00;99.90;;;;;;5094303;28;20780;-67
2022/10/17 05:50:30;;;;;;;9.57;7.00;;;15.00;99.90;;;;;;5094273;28;20453;-68
2022/10/17 05:52:57;;;;;;;9.90;6.93;;;15.00;99.90;;;;;;5094252;28;20477;-68
2022/10/17 05:55:25;;;;;;;6.80;6.20;;;15.00;99.90;;;;;;5094471;28;20453;-68
2022/10/17 05:57:52;;;;;;;8.50;7.60;;;15.00;99.90;;;;;;5093920;28;20481;-67
2022/10/17 06:00:20;;;;;;;13.80;6.67;;;15.00;99.90;;;;;;5094563;28;20457;-66
2022/10/17 06:02:47;;;;;;;7.03;6.43;;;14.90;99.90;;;;;;5094538;28;20453;-67
2022/10/17 06:05:14;;;;;;;6.60;6.00;;;15.00;99.90;;;;;;5094792;28;20460;-67
2022/10/17 06:07:42;;;;;;;7.00;6.30;;;15.00;99.90;;;;;;5094772;28;20540;-68
2022/10/17 06:10:11;;;;;;;7.43;6.83;;;15.00;99.90;;;;;;5095342;28;20453;-66
2022/10/17 06:12:39;;;;;;;7.70;6.87;;;15.00;99.90;;;;;;5094343;28;20457;-68
2022/10/17 06:15:07;;;;;;;10.40;6.53;;;15.00;99.90;;;;;;5093899;28;20464;-67
2022/10/17 06:17:34;;;;;;;7.70;6.90;;;15.00;99.90;;;;;;5094032;28;21057;-67
2022/10/17 06:20:01;;;;;;;7.37;6.63;;;15.10;99.90;;;;;;5093917;28;20463;-67
2022/10/17 06:22:28;;;;;;;8.47;7.67;;;15.10;99.90;;;;;;5094259;28;20469;-67
2022/10/17 06:24:55;;;;;;;11.80;8.33;;;15.10;99.90;;;;;;5093971;28;20815;-68
2022/10/17 06:27:21;;;;;;;8.47;7.67;;;15.10;99.90;;;;;;5093868;28;20948;-67
2022/10/17 06:29:50;;;;;;;7.30;6.60;;;15.20;99.90;;;;;;5094431;28;20548;-67
2022/10/17 06:32:17;;;;;;;8.10;7.27;;;15.20;99.90;;;;;;5094088;28;20457;-67
2022/10/17 06:34:44;;;;;;;11.20;7.10;;;15.30;99.90;;;;;;5094460;28;20793;-67
2022/10/17 06:37:11;;;;;;;7.67;6.90;;;15.30;99.90;;;;;;5094205;28;20481;-67
2022/10/17 06:39:37;;;;;;;7.00;6.30;;;15.30;99.90;;;;;;5093981;28;20453;-67
2022/10/17 06:42:04;;;;;;;8.47;7.70;;;15.40;99.90;;;;;;5093783;28;20484;-67
2022/10/17 06:44:31;;;;;;;7.73;6.37;;;15.40;99.90;;;;;;5093961;28;20463;-67
2022/10/17 06:47:00;;;;;;;7.50;6.53;;;15.40;99.90;;;;;;5093949;28;20922;-67
2022/10/17 06:49:28;;;;;;;7.70;6.50;;;15.50;99.90;;;;;;5095960;28;20529;-67
2022/10/17 06:51:55;;;;;;;11.73;7.10;;;15.50;99.90;;;;;;5096982;28;20530;-68
2022/10/17 06:54:22;;;;;;;10.63;7.03;;;15.50;99.90;;;;;;5098022;28;20535;-67
2022/10/17 06:56:49;;;;;;;6.70;6.10;;;15.60;99.90;;;;;;5097480;28;20576;-67
2022/10/17 06:59:15;;;;;;;7.43;6.30;;;15.60;99.90;;;;;;5097699;28;20544;-68
2022/10/17 07:01:43;;;;;;;9.83;6.10;;;15.60;99.90;;;;;;5097104;28;20968;-67
2022/10/17 07:04:11;;;;;;;8.00;6.00;;;15.60;99.90;;;;;;5097400;28;20843;-68
2022/10/17 07:06:38;;;;;;;6.30;5.70;;;15.70;99.90;;;;;;5097030;28;20539;-68
2022/10/17 07:09:06;;;;;;;7.50;6.10;;;15.80;99.90;;;;;;5096851;28;20477;-67
2022/10/17 07:11:34;;;;;;;8.30;6.30;;;15.80;99.90;;;;;;5097236;28;20611;-67
2022/10/17 07:14:01;;;;;;;6.93;6.23;;;15.80;99.90;;;;;;5096783;28;20556;-68
2022/10/17 07:16:29;;;;;;;6.97;6.27;;;15.90;99.90;;;;;;5097053;28;20477;-68
2022/10/17 07:18:56;;;;;;;6.83;5.90;;;16.00;99.90;;;;;;5096946;28;20510;-68
2022/10/17 07:21:24;;;;;;;7.17;5.83;;;16.10;99.90;;;;;;5096959;28;20449;-68
2022/10/17 07:23:51;;;;;;;6.00;5.50;;;16.10;99.90;;;;;;5097666;28;20484;-68
2022/10/17 07:26:18;;;;;;;6.00;5.20;;;16.20;99.90;;;;;;5096675;28;20453;-67
2022/10/17 07:28:47;;;;;;;6.30;5.70;;;16.20;99.90;;;;;;5097976;28;20463;-68
2022/10/17 07:31:16;;;;;;;7.67;5.47;;;16.30;99.90;;;;;;5097550;28;20461;-67
2022/10/17 07:33:43;;;;;;;8.90;5.50;;;16.30;99.90;;;;;;5096435;28;20713;-67
2022/10/17 07:36:12;;;;;;;7.63;5.93;;;16.30;99.90;;;;;;5096641;28;20453;-68
2022/10/17 07:38:40;;;;;;;9.67;5.77;;;16.40;99.90;;;;;;5096539;28;20522;-67
2022/10/17 07:41:09;;;;;;;7.13;5.47;;;16.40;99.90;;;;;;5096404;28;20464;-67
2022/10/17 07:43:36;;;;;;;6.60;4.60;;;16.50;99.90;;;;;;5096217;28;20544;-67
2022/10/17 07:46:04;;;;;;;5.97;5.47;;;16.60;99.90;;;;;;5096647;28;20458;-67
2022/10/17 07:48:31;;;;;;;9.03;5.60;;;16.70;99.90;;;;;;5096526;28;20450;-68
2022/10/17 07:51:01;;;;;;;5.23;4.73;;;16.70;99.90;;;;;;5096204;28;20789;-67
2022/10/17 07:53:28;;;;;;;6.03;5.07;;;16.80;99.90;;;;;;5095637;28;20453;-67
2022/10/17 07:55:56;;;;;;;8.17;5.17;;;16.80;99.90;;;;;;5096032;28;20471;-68
2022/10/17 07:58:24;;;;;;;5.97;5.27;;;16.90;99.90;;;;;;5095619;28;20504;-68
2022/10/17 08:00:50;;;;;;;5.27;4.80;;;17.00;99.90;;;;;;5095514;28;20530;-67
2022/10/17 08:03:17;;;;;;;6.77;4.43;;;17.00;99.90;;;;;;5095621;28;20492;-67
2022/10/17 08:05:44;;;;;;;5.70;4.33;;;17.10;99.90;;;;;;5095686;28;20464;-67
2022/10/17 08:08:11;;;;;;;5.43;4.63;;;17.10;99.90;;;;;;5095685;28;20449;-67
2022/10/17 08:10:38;;;;;;;5.27;4.77;;;17.20;99.90;;;;;;5095400;28;20836;-68
2022/10/17 08:13:06;;;;;;;5.80;4.40;;;17.30;99.90;;;;;;5095416;28;20463;-67
2022/10/17 08:15:33;;;;;;;5.07;4.20;;;17.30;99.90;;;;;;5095473;28;20461;-67
2022/10/17 08:18:00;;;;;;;4.40;4.00;;;17.30;99.90;;;;;;5095262;28;20469;-68
2022/10/17 08:20:26;;;;;;;5.80;5.00;;;17.40;99.90;;;;;;5095568;28;20453;-68
2022/10/17 08:22:54;;;;;;;4.80;4.40;;;17.50;99.90;;;;;;5095474;28;20518;-67
2022/10/17 08:25:21;;;;;;;5.23;4.37;;;17.70;99.90;;;;;;5095281;28;20576;-67
2022/10/17 08:27:47;;;;;;;5.40;4.47;;;17.70;99.90;;;;;;5095654;28;20449;-67
2022/10/17 08:30:16;;;;;;;6.30;3.83;;;17.80;99.90;;;;;;5095462;28;20453;-67
2022/10/17 08:32:43;;;;;;;4.43;4.03;;;17.90;99.90;;;;;;5095164;28;20515;-67
2022/10/17 08:35:10;;;;;;;7.73;4.30;;;18.00;99.90;;;;;;5095030;28;20552;-68
2022/10/17 08:37:37;;;;;;;10.60;4.33;;;18.00;99.90;;;;;;5094998;28;20902;-67
2022/10/17 08:40:04;;;;;;;4.60;4.20;;;18.10;99.90;;;;;;5094997;28;20918;-68
2022/10/17 08:42:49;;;;;;;10.10;5.50;;;18.10;99.90;;;;;;5095269;28;20561;-68
2022/10/17 08:45:25;;;;;;;5.20;4.70;;;18.20;99.90;;;;;;5094864;28;20453;-67
2022/10/17 08:47:58;;;;;;;5.23;4.10;;;18.30;99.90;;;;;;5095342;28;20763;-68
2022/10/17 08:50:32;;;;;;;6.30;4.87;;;18.40;99.90;;;;;;5094898;28;20437;-68
2022/10/17 08:53:04;;;;;;;6.53;3.90;;;18.50;99.90;;;;;;5094868;28;20899;-69
2022/10/17 08:55:36;;;;;;;3.80;3.43;;;18.60;99.90;;;;;;5094771;28;20448;-68
2022/10/17 08:58:03;;;;;;;13.43;4.00;;;18.70;99.90;;;;;;5094744;28;20488;-67
2022/10/17 09:00:32;;;;;;;6.00;3.87;;;18.80;99.90;;;;;;5095017;28;20449;-69
2022/10/17 09:03:11;;;;;;;6.63;4.03;;;18.90;99.90;;;;;;5094894;28;20453;-67
2022/10/17 09:05:46;;;;;;;7.30;3.90;;;18.90;99.90;;;;;;5094983;28;20468;-69
2022/10/17 09:08:30;;;;;;;4.70;3.80;;;19.00;99.90;;;;;;5094855;28;20447;-67
2022/10/17 09:11:00;;;;;;;5.40;4.43;;;19.10;99.90;;;;;;5094377;28;20449;-68
2022/10/17 09:13:43;;;;;;;11.70;4.47;;;19.20;99.90;;;;;;5094550;28;20795;-67
2022/10/17 09:16:32;;;;;;;4.50;3.30;;;19.30;99.90;;;;;;5095009;28;20452;-69
2022/10/17 09:19:04;;;;;;;7.23;3.80;;;19.40;99.90;;;;;;5094658;28;20465;-67
2022/10/17 09:21:41;;;;;;;7.43;3.40;;;19.50;99.90;;;;;;5094173;28;20529;-68
2022/10/17 09:24:15;;;;;;;3.80;3.40;;;19.60;99.90;;;;;;5094372;28;20485;-67
2022/10/17 09:26:43;;;;;;;10.67;3.43;;;19.70;99.90;;;;;;5094683;28;20437;-68
2022/10/17 09:29:19;;;;;;;5.40;3.33;;;19.80;99.90;;;;;;5094262;28;20552;-67
2022/10/17 09:31:53;;;;;;;6.10;3.50;;;19.80;99.90;;;;;;5094266;28;20437;-67
2022/10/17 09:34:20;;;;;;;11.60;3.53;;;20.00;99.90;;;;;;5094299;28;20441;-67
2022/10/17 09:36:47;;;;;;;3.97;3.03;;;20.10;99.90;;;;;;5094159;28;20457;-67
2022/10/17 09:39:16;;;;;;;4.07;2.90;;;20.20;99.90;;;;;;5093899;28;20544;-68
2022/10/17 09:41:47;;;;;;;3.40;3.10;;;20.30;99.90;;;;;;5094006;28;20461;-68
2022/10/17 09:44:18;;;;;;;3.03;2.60;;;20.40;99.90;;;;;;5094383;28;20442;-67
2022/10/17 09:47:00;;;;;;;3.17;2.87;;;20.50;99.90;;;;;;5094390;28;20441;-68
2022/10/17 09:49:32;;;;;;;5.40;3.47;;;20.60;99.90;;;;;;5094424;28;20445;-67
2022/10/17 09:52:00;;;;;;;3.77;3.13;;;20.60;99.90;;;;;;5094456;28;20460;-67
2022/10/17 09:54:33;;;;;;;5.17;3.00;;;20.70;99.90;;;;;;5094463;28;20468;-67
2022/10/17 09:57:02;;;;;;;3.70;3.10;;;20.80;99.90;;;;;;5093797;28;20441;-67
2022/10/17 09:59:36;;;;;;;4.60;3.33;;;20.80;99.90;;;;;;5093840;28;20556;-68
2022/10/17 10:02:19;;;;;;;4.47;2.97;;;20.90;99.90;;;;;;5094231;28;20467;-68
2022/10/17 10:04:55;;;;;;;3.40;3.13;;;21.00;99.90;;;;;;5094113;28;20456;-67
2022/10/17 10:07:22;;;;;;;3.63;3.17;;;21.10;99.90;;;;;;5093936;28;20519;-67
2022/10/17 10:09:50;;;;;;;6.37;3.40;;;21.20;99.90;;;;;;5094004;28;20479;-67
2022/10/17 10:12:19;;;;;;;10.13;3.17;;;21.30;99.90;;;;;;5094124;28;20783;-67
2022/10/17 10:14:46;;;;;;;4.00;3.20;;;21.50;99.90;;;;;;5093863;28;20463;-67
2022/10/17 10:17:29;;;;;;;4.27;3.20;;;21.60;99.90;;;;;;5093727;28;20483;-67
2022/10/17 10:19:56;;;;;;;7.07;3.23;;;21.70;99.90;;;;;;5094617;28;20441;-68
2022/10/17 10:22:23;;;;;;;3.10;2.80;;;21.90;99.90;;;;;;5093145;28;20947;-68
2022/10/17 10:25:08;;;;;;;3.43;2.83;;;22.00;99.90;;;;;;5096367;28;20477;-67
2022/10/17 10:27:36;;;;;;;3.47;2.90;;;22.10;99.90;;;;;;5097698;28;20433;-67
2022/10/17 10:30:05;;;;;;;4.60;3.40;;;22.20;99.90;;;;;;5097332;28;20457;-67
2022/10/17 10:32:35;;;;;;;3.83;3.47;;;22.20;99.90;;;;;;5097182;28;20463;-67
2022/10/17 10:35:06;;;;;;;6.73;2.80;;;22.30;99.90;;;;;;5097108;28;20540;-67
2022/10/17 10:37:38;;;;;;;3.67;2.93;;;22.30;99.90;;;;;;5097192;28;20495;-67
2022/10/17 10:40:07;;;;;;;5.53;2.80;;;22.40;99.90;;;;;;5097847;28;20445;-67
2022/10/17 10:42:37;;;;;;;5.90;3.00;;;22.30;99.90;;;;;;5097381;28;20464;-67
2022/10/17 10:45:14;;;;;;;7.53;3.30;;;22.30;99.90;;;;;;5098035;28;20848;-67
2022/10/17 10:47:51;;;;;;;3.93;3.53;;;22.40;99.90;;;;;;5097327;28;20440;-67
2022/10/17 10:50:26;;;;;;;4.03;3.63;;;22.50;99.90;;;;;;5097465;28;20449;-66
2022/10/17 10:53:07;;;;;;;5.60;3.13;;;22.60;99.90;;;;;;5097420;28;20441;-68
2022/10/17 10:55:40;;;;;;;4.37;3.17;;;22.70;99.90;;;;;;5097537;28;20437;-67
2022/10/17 10:58:26;;;;;;;6.50;3.43;;;22.80;99.90;;;;;;5097031;28;20487;-67
2022/10/17 11:00:54;;;;;;;7.37;3.47;;;23.00;99.90;;;;;;5098094;28;20445;-67
2022/10/17 11:03:29;;;;;;;4.33;3.47;;;23.10;99.90;;;;;;5096461;28;20906;-67
2022/10/17 11:06:00;;;;;;;4.20;3.03;;;23.30;99.90;;;;;;5097306;28;20441;-67
2022/10/17 11:08:34;;;;;;;3.43;3.13;;;23.40;99.90;;;;;;5097962;28;20459;-68
2022/10/17 11:11:12;;;;;;;5.47;3.40;;;23.50;99.90;;;;;;5096993;28;20441;-67
2022/10/17 11:13:45;;;;;;;7.13;3.40;;;23.70;99.90;;;;;;5097812;28;20442;-68
2022/10/17 11:16:25;;;;;;;4.60;2.50;;;23.80;99.90;;;;;;5097235;28;20442;-68
2022/10/17 11:19:02;;;;;;;3.10;2.70;;;23.90;99.90;;;;;;5097192;28;20465;-67
2022/10/17 11:21:38;;;;;;;3.10;2.80;;;24.00;99.90;;;;;;5097221;28;20441;-67
2022/10/17 11:24:12;;;;;;;7.23;2.63;;;24.20;99.90;;;;;;5096414;28;20491;-67
2022/10/17 11:26:46;;;;;;;4.17;2.77;;;24.30;99.90;;;;;;5096253;28;20437;-67
2022/10/17 11:29:13;;;;;;;2.67;2.47;;;24.30;99.90;;;;;;5096572;28;20433;-67
2022/10/17 11:31:48;;;;;;;5.03;2.70;;;24.40;99.90;;;;;;5097330;28;20457;-67
2022/10/17 11:34:22;;;;;;;3.57;2.80;;;24.40;99.90;;;;;;5095820;28;20472;-68
2022/10/17 11:36:52;;;;;;;3.57;2.80;;;24.60;99.90;;;;;;5096827;28;20533;-68
2022/10/17 11:39:23;;;;;;;2.80;2.60;;;24.70;99.90;;;;;;5097123;28;20492;-67
2022/10/17 11:41:53;;;;;;;3.10;2.80;;;24.80;99.90;;;;;;5096631;28;20441;-67
2022/10/17 11:44:26;;;;;;;4.47;2.70;;;24.90;99.90;;;;;;5096800;28;20772;-69
2022/10/17 11:47:00;;;;;;;5.70;2.50;;;25.20;99.90;;;;;;5096827;28;20532;-68
2022/10/17 11:49:32;;;;;;;4.27;2.80;;;25.60;99.90;;;;;;5096792;28;20454;-68
2022/10/17 11:52:11;;;;;;;3.10;2.00;;;26.20;99.90;;;;;;5096992;28;20448;-67
2022/10/17 11:54:42;;;;;;;3.10;2.60;;;26.90;99.90;;;;;;5096948;28;20441;-68
2022/10/17 11:57:33;;;;;;;3.47;2.80;;;27.50;99.90;;;;;;5096690;28;20449;-67
2022/10/17 12:00:23;;;;;;;3.63;2.63;;;27.90;99.90;;;;;;5096379;28;20453;-68
2022/10/17 12:02:57;;;;;;;2.63;2.43;;;28.00;99.90;;;;;;5096430;28;20882;-68
2022/10/17 12:05:33;;;;;;;5.57;2.67;;;28.30;99.90;;;;;;5095895;28;20884;-67
2022/10/17 12:08:05;;;;;;;3.57;2.53;;;28.60;99.90;;;;;;5095840;28;20429;-67
2022/10/17 12:10:40;;;;;;;3.87;2.93;;;29.00;99.90;;;;;;5095495;28;20437;-67
2022/10/17 12:13:45;;;;;;;8.00;2.63;;;29.40;99.90;;;;;;5095335;28;20437;-67
2022/10/17 12:16:47;;;;;;;6.10;2.63;;;30.00;99.90;;;;;;5095343;28;20449;-67
2022/10/17 12:19:31;;;;;;;3.57;2.43;;;30.20;99.00;;;;;;5096033;28;20996;-67
2022/10/17 12:22:18;;;;;;;4.50;2.80;;;30.60;96.20;;;;;;5095851;28;20437;-67
2022/10/17 12:24:54;;;;;;;5.10;2.30;;;30.90;93.80;;;;;;5095706;28;20542;-68
2022/10/17 12:27:46;;;;;;;4.47;2.70;;;30.80;91.40;;;;;;5095470;28;20770;-68
2022/10/17 12:30:22;;;;;;;2.80;2.60;;;31.10;90.90;;;;;;5095227;28;20524;-66
2022/10/17 12:33:21;;;;;;;4.83;2.67;;;31.50;87.40;;;;;;5095468;28;20536;-67
2022/10/17 12:35:49;;;;;;;2.93;2.63;;;31.90;86.80;;;;;;5095170;28;20449;-67
2022/10/17 12:38:23;;;;;;;5.13;2.77;;;32.30;80.70;;;;;;5095393;28;20473;-67
2022/10/17 12:41:02;;;;;;;5.30;2.53;;;32.80;78.00;;;;;;5095227;28;20480;-68
2022/10/17 12:43:47;;;;;;;6.60;2.90;;;33.20;73.50;;;;;;5094733;28;20468;-68
2022/10/17 12:46:45;;;;;;;4.90;2.50;;;33.20;69.30;;;;;;5093732;28;20442;-67
2022/10/17 12:49:46;;;;;;;3.80;2.50;;;33.20;68.50;;;;;;5095100;28;20449;-67
2022/10/17 12:52:29;;;;;;;11.33;3.07;;;33.10;66.30;;;;;;5094835;28;20523;-67
2022/10/17 12:55:01;;;;;;;6.33;2.87;;;33.30;64.50;;;;;;5094670;28;20448;-67
2022/10/17 12:57:33;;;;;;;4.57;2.97;;;33.30;63.20;;;;;;5094877;28;20448;-67
2022/10/17 13:00:04;;;;;;;4.07;2.83;;;33.10;62.00;;;;;;5094669;28;20800;-67
2022/10/17 13:02:33;;;;;;;6.60;2.40;;;32.60;62.20;;;;;;5095974;28;20730;-66
2022/10/17 13:05:07;;;;;;;3.10;2.53;;;32.10;64.20;;;;;;5094847;28;20784;-66